createdAt,value
2023-12-31T00:00:49.238Z,2.07
2023-12-31T00:03:16.040Z,2.40
2023-12-31T00:05:45.447Z,2.37
2023-12-31T00:08:12.410Z,2.30
2023-12-31T00:10:41.893Z,1.97
2023-12-31T00:13:08.837Z,2.20
2023-12-31T00:15:35.626Z,2.30
2023-12-31T00:18:02.484Z,1.90
2023-12-31T00:20:29.261Z,2.17
2023-12-31T00:23:03.432Z,2.20
2023-12-31T00:25:32.845Z,2.03
2023-12-31T00:28:00.848Z,2.20
2023-12-31T00:30:28.774Z,2.20
2023-12-31T00:32:55.732Z,2.07
2023-12-31T00:35:22.885Z,2.27
2023-12-31T00:37:51.908Z,2.03
2023-12-31T00:40:18.722Z,2.10
2023-12-31T00:42:45.518Z,2.20
2023-12-31T00:45:14.432Z,2.20
2023-12-31T00:47:43.479Z,2.00
2023-12-31T00:50:10.583Z,2.30
2023-12-31T00:52:37.379Z,2.40
2023-12-31T00:55:06.911Z,2.10
2023-12-31T00:57:36.009Z,2.30
2023-12-31T01:00:05.113Z,2.23
2023-12-31T01:02:31.792Z,2.17
2023-12-31T01:05:00.981Z,2.10
2023-12-31T01:07:27.850Z,2.40
2023-12-31T01:09:54.576Z,2.30
2023-12-31T01:12:23.555Z,2.10
2023-12-31T01:14:50.506Z,2.53
2023-12-31T01:17:17.208Z,2.30
2023-12-31T01:19:44.086Z,2.93
2023-12-31T01:22:11.485Z,2.40
2023-12-31T01:24:38.302Z,2.30
2023-12-31T01:27:07.615Z,2.13
2023-12-31T01:29:38.411Z,2.30
2023-12-31T01:32:08.194Z,2.40
2023-12-31T01:34:37.217Z,2.40
2023-12-31T01:37:07.124Z,2.00
2023-12-31T01:39:34.287Z,2.20
2023-12-31T01:42:01.055Z,1.80
2023-12-31T01:44:29.031Z,2.00
2023-12-31T01:46:56.261Z,2.20
2023-12-31T01:49:27.883Z,2.40
2023-12-31T01:51:54.812Z,2.27
2023-12-31T01:54:24.574Z,2.03
2023-12-31T01:56:53.097Z,2.03
2023-12-31T01:59:24.770Z,1.90
2023-12-31T02:01:56.617Z,2.30
2023-12-31T02:04:26.413Z,2.30
2023-12-31T02:06:53.319Z,2.38
2023-12-31T02:09:20.342Z,2.10
2023-12-31T02:11:49.355Z,2.03
2023-12-31T02:14:16.057Z,2.13
2023-12-31T02:16:45.392Z,1.83
2023-12-31T02:19:14.246Z,2.50
2023-12-31T02:21:41.681Z,2.00
2023-12-31T02:24:12.397Z,2.10
2023-12-31T02:26:43.746Z,2.27
2023-12-31T02:29:10.568Z,2.00
2023-12-31T02:31:39.599Z,2.17
2023-12-31T02:34:09.108Z,2.33
2023-12-31T02:36:38.293Z,1.77
2023-12-31T02:39:07.429Z,2.00
2023-12-31T02:41:35.773Z,1.83
2023-12-31T02:44:03.291Z,1.87
2023-12-31T02:46:32.543Z,2.33
2023-12-31T02:48:59.368Z,2.10
2023-12-31T02:51:28.278Z,2.40
2023-12-31T02:53:57.256Z,2.30
2023-12-31T02:56:24.873Z,2.37
2023-12-31T02:58:54.158Z,2.33
2023-12-31T03:01:20.992Z,2.20
2023-12-31T03:03:47.808Z,2.00
2023-12-31T03:06:18.865Z,2.37
2023-12-31T03:08:45.654Z,2.40
2023-12-31T03:11:14.795Z,2.20
2023-12-31T03:13:41.678Z,2.13
2023-12-31T03:16:08.568Z,2.00
2023-12-31T03:18:35.449Z,2.13
2023-12-31T03:21:04.687Z,2.40
2023-12-31T03:23:31.531Z,2.23
2023-12-31T03:25:58.739Z,2.40
2023-12-31T03:28:25.557Z,2.45
2023-12-31T03:30:54.486Z,2.47
2023-12-31T03:33:21.700Z,2.07
2023-12-31T03:35:48.465Z,2.30
2023-12-31T03:38:15.194Z,2.10
2023-12-31T03:40:44.121Z,1.90
2023-12-31T03:43:15.865Z,2.13
2023-12-31T03:45:43.030Z,2.40
2023-12-31T03:48:09.895Z,1.90
2023-12-31T03:50:37.458Z,2.17
2023-12-31T03:53:07.086Z,2.43
2023-12-31T03:55:34.050Z,2.00
2023-12-31T03:58:03.344Z,2.43
2023-12-31T04:00:35.364Z,2.33
2023-12-31T04:03:05.285Z,2.20
2023-12-31T04:05:32.536Z,2.27
2023-12-31T04:07:59.856Z,1.80
2023-12-31T04:10:26.783Z,1.63
2023-12-31T04:12:53.675Z,2.07
2023-12-31T04:15:22.620Z,2.10
2023-12-31T04:17:49.398Z,2.03
2023-12-31T04:20:16.245Z,2.10
2023-12-31T04:22:45.312Z,2.07
2023-12-31T04:25:14.416Z,1.80
2023-12-31T04:27:45.893Z,1.80
2023-12-31T04:30:15.977Z,1.80
2023-12-31T04:32:42.827Z,2.00
2023-12-31T04:35:09.829Z,1.70
2023-12-31T04:37:39.223Z,2.27
2023-12-31T04:40:06.940Z,1.67
2023-12-31T04:42:33.804Z,1.90
2023-12-31T04:45:08.359Z,2.20
2023-12-31T04:47:36.938Z,1.70
2023-12-31T04:50:03.954Z,2.07
2023-12-31T04:52:30.821Z,1.67
2023-12-31T04:54:57.653Z,1.90
2023-12-31T04:57:25.130Z,2.00
2023-12-31T04:59:52.087Z,1.88
2023-12-31T05:02:24.799Z,1.90
2023-12-31T05:04:53.769Z,1.70
2023-12-31T05:07:20.493Z,2.00
2023-12-31T05:09:47.241Z,1.90
2023-12-31T05:12:13.966Z,1.60
2023-12-31T05:14:40.648Z,1.80
2023-12-31T05:17:09.833Z,1.70
2023-12-31T05:19:37.077Z,1.53
2023-12-31T05:22:03.885Z,1.85
2023-12-31T05:24:30.623Z,1.50
2023-12-31T05:26:57.329Z,1.90
2023-12-31T05:29:24.069Z,1.47
2023-12-31T05:31:53.432Z,1.50
2023-12-31T05:34:20.503Z,1.50
2023-12-31T05:36:47.335Z,1.40
2023-12-31T05:39:14.193Z,1.67
2023-12-31T05:41:45.285Z,1.43
2023-12-31T05:44:13.452Z,1.50
2023-12-31T05:46:42.701Z,1.60
2023-12-31T05:49:12.044Z,1.30
2023-12-31T05:51:38.864Z,1.57
2023-12-31T05:54:10.061Z,1.50
2023-12-31T05:56:38.978Z,1.60
2023-12-31T05:59:05.733Z,1.77
2023-12-31T06:01:32.566Z,1.63
2023-12-31T06:04:02.205Z,1.47
2023-12-31T06:06:28.917Z,1.60
2023-12-31T06:08:55.638Z,1.57
2023-12-31T06:11:22.347Z,1.43
2023-12-31T06:13:51.198Z,1.80
2023-12-31T06:16:20.462Z,1.87
2023-12-31T06:18:49.671Z,1.97
2023-12-31T06:21:18.685Z,2.08
2023-12-31T06:23:50.070Z,2.03
2023-12-31T06:26:18.912Z,2.23
2023-12-31T06:28:48.189Z,1.93
2023-12-31T06:31:15.247Z,2.27
2023-12-31T06:33:42.093Z,2.10
2023-12-31T06:36:08.880Z,2.13
2023-12-31T06:38:39.194Z,2.60
2023-12-31T06:41:11.912Z,2.10
2023-12-31T06:43:39.975Z,2.00
2023-12-31T06:46:09.108Z,2.20
2023-12-31T06:48:38.629Z,2.07
2023-12-31T06:51:08.505Z,2.27
2023-12-31T06:53:39.391Z,2.53
2023-12-31T06:56:13.044Z,2.23
2023-12-31T06:58:39.921Z,2.37
2023-12-31T07:01:07.225Z,2.30
2023-12-31T07:03:34.021Z,2.40
2023-12-31T07:06:00.793Z,2.20
2023-12-31T07:08:27.562Z,2.00
2023-12-31T07:10:56.569Z,2.20
2023-12-31T07:13:25.797Z,2.20
2023-12-31T07:15:52.714Z,2.53
2023-12-31T07:18:19.538Z,2.33
2023-12-31T07:20:50.350Z,2.50
2023-12-31T07:23:17.185Z,2.77
2023-12-31T07:25:44.336Z,2.63
2023-12-31T07:28:11.112Z,2.47
2023-12-31T07:30:37.903Z,2.30
2023-12-31T07:33:07.927Z,2.30
2023-12-31T07:35:37.301Z,2.10
2023-12-31T07:38:09.765Z,2.20
2023-12-31T07:40:39.042Z,2.50
2023-12-31T07:43:08.735Z,2.80
2023-12-31T07:45:37.722Z,2.30
2023-12-31T07:48:06.934Z,2.33
2023-12-31T07:50:36.254Z,2.27
2023-12-31T07:53:02.944Z,2.30
2023-12-31T07:55:29.633Z,2.77
2023-12-31T07:57:58.473Z,2.60
2023-12-31T08:00:27.382Z,3.10
2023-12-31T08:02:54.099Z,2.47
2023-12-31T08:05:20.831Z,2.37
2023-12-31T08:07:47.603Z,2.57
2023-12-31T08:10:16.864Z,2.40
2023-12-31T08:12:46.200Z,2.60
2023-12-31T08:15:12.940Z,2.57
2023-12-31T08:17:39.729Z,2.95
2023-12-31T08:20:09.284Z,2.80
2023-12-31T08:22:38.367Z,2.50
2023-12-31T08:25:05.327Z,3.40
2023-12-31T08:27:32.129Z,3.80
2023-12-31T08:30:02.010Z,4.03
2023-12-31T08:32:30.127Z,4.50
2023-12-31T08:34:57.031Z,3.67
2023-12-31T08:37:23.824Z,3.70
2023-12-31T08:39:52.890Z,3.63
2023-12-31T08:42:19.632Z,3.50
2023-12-31T08:44:56.608Z,3.73
2023-12-31T08:47:30.986Z,2.90
2023-12-31T08:49:57.749Z,3.03
2023-12-31T08:52:24.558Z,3.75
2023-12-31T08:54:51.355Z,3.67
2023-12-31T08:57:20.353Z,6.27
2023-12-31T08:59:49.552Z,4.57
2023-12-31T09:02:16.668Z,3.73
2023-12-31T09:04:43.476Z,3.93
2023-12-31T09:07:12.839Z,4.13
2023-12-31T09:09:44.310Z,4.13
2023-12-31T09:12:10.990Z,3.27
2023-12-31T09:14:40.186Z,4.30
2023-12-31T09:17:09.217Z,4.50
2023-12-31T09:19:39.132Z,5.07
2023-12-31T09:22:08.602Z,5.00
2023-12-31T09:24:36.341Z,5.23
2023-12-31T09:27:11.528Z,4.50
2023-12-31T09:29:39.290Z,6.37
2023-12-31T09:32:06.253Z,6.77
2023-12-31T09:34:35.173Z,7.30
2023-12-31T09:37:02.056Z,7.40
2023-12-31T09:39:31.287Z,8.13
2023-12-31T09:42:03.075Z,7.40
2023-12-31T09:44:32.645Z,8.50
2023-12-31T09:47:10.807Z,9.23
2023-12-31T09:49:40.874Z,12.50
2023-12-31T09:52:09.071Z,14.60
2023-12-31T09:54:39.629Z,23.00
2023-12-31T09:57:07.387Z,16.97
2023-12-31T09:59:36.727Z,17.23
2023-12-31T10:02:08.565Z,16.03
2023-12-31T10:04:35.428Z,19.30
2023-12-31T10:07:04.724Z,21.90
2023-12-31T10:09:39.192Z,21.70
2023-12-31T10:12:06.334Z,22.88
2023-12-31T10:14:33.029Z,22.70
2023-12-31T10:16:59.937Z,24.80
2023-12-31T10:19:26.841Z,24.47
2023-12-31T10:21:57.202Z,24.17
2023-12-31T10:24:30.805Z,25.87
2023-12-31T10:27:06.174Z,26.73
2023-12-31T10:29:36.467Z,25.23
2023-12-31T10:32:04.704Z,26.63
2023-12-31T10:34:34.240Z,23.57
2023-12-31T10:37:08.751Z,24.40
2023-12-31T10:39:42.492Z,23.57
2023-12-31T10:42:09.458Z,24.20
2023-12-31T10:44:41.745Z,21.47
2023-12-31T10:47:12.708Z,21.73
2023-12-31T10:49:47.864Z,21.03
2023-12-31T10:52:16.315Z,19.00
2023-12-31T10:54:47.842Z,18.43
2023-12-31T10:57:16.268Z,17.20
2023-12-31T10:59:43.930Z,18.40
2023-12-31T11:02:16.961Z,17.27
2023-12-31T11:04:46.218Z,16.23
2023-12-31T11:07:21.984Z,15.60
2023-12-31T11:09:52.133Z,13.97
2023-12-31T11:12:19.695Z,13.17
2023-12-31T11:14:57.728Z,14.00
2023-12-31T11:17:42.630Z,13.07
2023-12-31T11:20:21.346Z,11.57
2023-12-31T11:23:12.543Z,10.07
2023-12-31T11:25:40.110Z,10.17
2023-12-31T11:28:09.443Z,9.30
2023-12-31T11:30:56.395Z,9.20
2023-12-31T11:33:34.958Z,9.00
2023-12-31T11:36:17.351Z,7.30
2023-12-31T11:39:02.445Z,7.40
2023-12-31T11:41:37.707Z,8.07
2023-12-31T11:44:04.879Z,7.07
2023-12-31T11:46:44.001Z,7.83
2023-12-31T11:49:14.232Z,7.30
2023-12-31T11:51:53.688Z,7.03
2023-12-31T11:54:38.573Z,7.30
2023-12-31T11:57:06.242Z,6.80
2023-12-31T11:59:40.825Z,5.90
2023-12-31T12:02:08.286Z,6.43
2023-12-31T12:04:37.841Z,6.00
2023-12-31T12:07:07.820Z,6.20
2023-12-31T12:09:37.967Z,6.47
2023-12-31T12:12:11.245Z,6.07
2023-12-31T12:14:37.991Z,5.70
2023-12-31T12:17:08.387Z,5.97
2023-12-31T12:19:38.453Z,5.77
2023-12-31T12:22:06.451Z,5.63
2023-12-31T12:24:33.459Z,6.27
2023-12-31T12:27:07.781Z,5.70
2023-12-31T12:29:36.287Z,5.30
2023-12-31T12:32:05.440Z,4.87
2023-12-31T12:34:32.373Z,4.53
2023-12-31T12:37:00.492Z,5.23
2023-12-31T12:39:27.359Z,4.63
2023-12-31T12:41:54.661Z,5.43
2023-12-31T12:44:24.903Z,4.87
2023-12-31T12:46:54.967Z,5.53
2023-12-31T12:49:23.953Z,6.15
2023-12-31T12:51:50.754Z,5.03
2023-12-31T12:54:18.145Z,4.73
2023-12-31T12:56:47.619Z,4.53
2023-12-31T12:59:14.432Z,4.47
2023-12-31T13:01:45.724Z,4.80
2023-12-31T13:04:13.831Z,4.43
2023-12-31T13:06:41.517Z,4.40
2023-12-31T13:09:08.835Z,4.57
2023-12-31T13:11:36.491Z,4.57
2023-12-31T13:14:08.351Z,4.67
2023-12-31T13:19:04.965Z,4.27
2023-12-31T13:21:34.149Z,4.33
2023-12-31T13:24:00.825Z,3.70
2023-12-31T13:26:29.957Z,4.10
2023-12-31T13:29:02.960Z,3.33
2023-12-31T13:31:31.251Z,4.33
2023-12-31T13:34:00.458Z,3.60
2023-12-31T13:36:27.334Z,3.87
2023-12-31T13:38:54.097Z,3.70
2023-12-31T13:41:23.766Z,3.30
2023-12-31T13:43:51.473Z,3.80
2023-12-31T13:46:18.243Z,3.63
2023-12-31T13:48:45.072Z,3.90
2023-12-31T13:51:14.134Z,3.53
2023-12-31T13:53:41.260Z,3.87
2023-12-31T13:56:08.212Z,3.80
2023-12-31T13:58:35.196Z,3.00
2023-12-31T14:01:02.095Z,3.20
2023-12-31T14:03:28.935Z,2.87
2023-12-31T14:05:58.783Z,2.67
2023-12-31T14:08:30.071Z,3.15
2023-12-31T14:10:56.832Z,2.83
2023-12-31T14:13:26.600Z,2.43
2023-12-31T14:15:53.471Z,2.70
2023-12-31T14:18:22.627Z,2.50
2023-12-31T14:20:55.765Z,2.27
2023-12-31T14:23:22.552Z,2.20
2023-12-31T14:25:49.542Z,1.90
2023-12-31T14:28:16.523Z,2.10
2023-12-31T14:30:44.534Z,2.20
2023-12-31T14:33:14.532Z,2.00
2023-12-31T14:35:45.891Z,2.10
2023-12-31T14:38:17.790Z,2.10
2023-12-31T14:40:46.831Z,2.40
2023-12-31T14:43:13.629Z,2.40
2023-12-31T14:45:42.818Z,2.37
2023-12-31T14:48:11.777Z,2.67
2023-12-31T14:50:41.020Z,2.03
2023-12-31T14:53:08.832Z,2.83
2023-12-31T14:55:40.582Z,2.50
2023-12-31T14:58:07.413Z,2.60
2023-12-31T15:00:34.379Z,3.10
2023-12-31T15:03:03.878Z,2.83
2023-12-31T15:05:36.554Z,2.57
2023-12-31T15:08:06.830Z,2.40
2023-12-31T15:10:34.122Z,2.23
2023-12-31T15:13:06.934Z,2.50
2023-12-31T15:15:36.847Z,2.50
2023-12-31T15:18:07.225Z,2.47
2023-12-31T15:20:34.264Z,2.30
2023-12-31T15:23:03.746Z,2.73
2023-12-31T15:25:33.176Z,2.50
2023-12-31T15:28:05.851Z,2.53
2023-12-31T15:30:35.368Z,2.60
2023-12-31T15:33:04.575Z,2.30
2023-12-31T15:35:31.414Z,2.47
2023-12-31T15:38:08.190Z,2.60
2023-12-31T15:40:40.517Z,2.47
2023-12-31T15:43:10.202Z,2.67
2023-12-31T15:45:38.073Z,2.60
2023-12-31T15:48:05.360Z,2.80
2023-12-31T15:50:32.603Z,2.93
2023-12-31T15:52:59.519Z,2.80
2023-12-31T15:55:31.384Z,2.47
2023-12-31T15:57:58.476Z,2.60
2023-12-31T16:00:27.900Z,2.70
2023-12-31T16:02:55.205Z,2.40
2023-12-31T16:05:22.342Z,3.13
2023-12-31T16:07:50.062Z,2.60
2023-12-31T16:10:17.031Z,2.80
2023-12-31T16:12:46.466Z,2.23
2023-12-31T16:15:13.665Z,2.20
2023-12-31T16:17:40.602Z,2.77
2023-12-31T16:20:13.358Z,2.30
2023-12-31T16:22:40.955Z,2.17
2023-12-31T16:25:08.306Z,2.23
2023-12-31T16:27:37.441Z,2.27
2023-12-31T16:30:07.165Z,2.10
2023-12-31T16:32:41.294Z,2.10
2023-12-31T16:35:08.660Z,2.30
2023-12-31T16:37:37.584Z,2.30
2023-12-31T16:40:05.769Z,2.50
2023-12-31T16:42:34.935Z,1.80
2023-12-31T16:45:01.652Z,1.90
2023-12-31T16:47:31.030Z,1.73
2023-12-31T16:49:58.349Z,1.90
2023-12-31T16:52:25.606Z,1.80
2023-12-31T16:54:52.423Z,1.77
2023-12-31T16:57:19.617Z,1.80
2023-12-31T16:59:49.437Z,1.98
2023-12-31T17:02:16.236Z,1.83
2023-12-31T17:04:43.805Z,2.20
2023-12-31T17:07:12.567Z,1.83
2023-12-31T17:09:43.116Z,1.70
2023-12-31T17:12:12.038Z,1.73
2023-12-31T17:14:38.785Z,1.60
2023-12-31T17:17:07.991Z,1.43
2023-12-31T17:19:34.686Z,1.70
2023-12-31T17:22:01.828Z,1.77
2023-12-31T17:24:28.570Z,1.70
2023-12-31T17:26:58.899Z,1.77
2023-12-31T17:29:25.912Z,1.55
2023-12-31T17:31:52.646Z,1.37
2023-12-31T17:34:19.374Z,1.80
2023-12-31T17:36:51.941Z,1.43
2023-12-31T17:39:23.737Z,1.40
2023-12-31T17:41:50.870Z,1.30
2023-12-31T17:44:18.040Z,1.40
2023-12-31T17:46:45.248Z,1.47
2023-12-31T17:49:12.157Z,1.20
2023-12-31T17:51:41.080Z,1.48
2023-12-31T17:54:08.159Z,1.00
2023-12-31T17:56:37.675Z,1.20
2023-12-31T17:59:05.018Z,1.30
2023-12-31T18:01:36.487Z,1.23
2023-12-31T18:04:03.668Z,1.20
2023-12-31T18:06:30.381Z,1.30
2023-12-31T18:08:57.172Z,1.17
2023-12-31T18:11:24.034Z,1.03
2023-12-31T18:13:50.901Z,1.00
2023-12-31T18:16:18.356Z,1.43
2023-12-31T18:18:45.202Z,1.30
2023-12-31T18:21:14.609Z,1.20
2023-12-31T18:23:41.628Z,1.10
2023-12-31T18:26:10.619Z,1.10
2023-12-31T18:28:37.523Z,1.10
2023-12-31T18:31:04.380Z,1.00
2023-12-31T18:33:31.678Z,0.90
2023-12-31T18:35:58.537Z,1.00
2023-12-31T18:38:25.685Z,1.27
2023-12-31T18:40:53.336Z,1.03
2023-12-31T18:43:20.460Z,1.27
2023-12-31T18:45:50.446Z,1.20
2023-12-31T18:48:17.249Z,1.17
2023-12-31T18:50:44.643Z,1.30
2023-12-31T18:53:11.474Z,0.90
2023-12-31T18:55:38.654Z,0.97
2023-12-31T18:58:05.736Z,1.10
2023-12-31T19:00:33.389Z,1.13
2023-12-31T19:03:00.470Z,1.77
2023-12-31T19:05:29.861Z,1.60
2023-12-31T19:07:58.931Z,1.33
2023-12-31T19:10:28.394Z,1.03
2023-12-31T19:12:57.325Z,1.50
2023-12-31T19:15:28.893Z,1.40
2023-12-31T19:17:57.864Z,1.10
2023-12-31T19:20:26.885Z,1.37
2023-12-31T19:22:54.064Z,1.20
2023-12-31T19:25:24.548Z,1.10
2023-12-31T19:27:51.331Z,1.30
2023-12-31T19:30:21.060Z,1.47
2023-12-31T19:32:50.085Z,1.77
2023-12-31T19:35:17.606Z,1.40
2023-12-31T19:37:44.471Z,1.17
2023-12-31T19:40:14.259Z,1.37
2023-12-31T19:42:41.426Z,1.50
2023-12-31T19:45:08.374Z,1.40
2023-12-31T19:47:35.602Z,1.10
2023-12-31T19:50:05.072Z,1.33
2023-12-31T19:52:34.455Z,1.73
2023-12-31T19:55:01.622Z,1.60
2023-12-31T19:57:28.372Z,1.70
2023-12-31T19:59:58.303Z,2.03
2023-12-31T20:02:29.934Z,2.27
2023-12-31T20:04:56.969Z,2.10
2023-12-31T20:07:23.711Z,1.93
2023-12-31T20:09:51.987Z,1.97
2023-12-31T20:12:19.167Z,2.10
2023-12-31T20:14:46.252Z,2.13
2023-12-31T20:17:15.656Z,2.20
2023-12-31T20:19:43.572Z,2.30
2023-12-31T20:22:10.472Z,2.53
2023-12-31T20:24:37.168Z,2.20
2023-12-31T20:27:04.103Z,2.00
2023-12-31T20:29:33.335Z,2.23
2023-12-31T20:32:02.617Z,2.20
2023-12-31T20:34:29.841Z,2.47
2023-12-31T20:36:59.285Z,2.10
2023-12-31T20:39:28.265Z,1.60
2023-12-31T20:41:57.418Z,2.10
2023-12-31T20:44:24.152Z,2.30
2023-12-31T20:46:51.554Z,2.00
2023-12-31T20:49:18.634Z,2.00
2023-12-31T20:51:46.473Z,1.93
2023-12-31T20:54:15.468Z,2.10
2023-12-31T20:56:42.234Z,1.92
2023-12-31T20:59:11.588Z,1.70
2023-12-31T21:01:41.978Z,1.97
2023-12-31T21:04:08.984Z,1.57
2023-12-31T21:06:38.128Z,1.60
2023-12-31T21:09:09.572Z,1.77
2023-12-31T21:11:39.835Z,1.70
2023-12-31T21:14:08.780Z,1.90
2023-12-31T21:16:35.612Z,1.60
2023-12-31T21:19:02.441Z,1.70
2023-12-31T21:21:34.190Z,1.80
2023-12-31T21:24:01.082Z,1.43
2023-12-31T21:26:30.374Z,1.40
2023-12-31T21:28:57.108Z,1.70
2023-12-31T21:31:26.453Z,1.47
2023-12-31T21:33:55.570Z,1.53
2023-12-31T21:36:24.612Z,1.70
2023-12-31T21:38:51.333Z,1.60
2023-12-31T21:41:21.488Z,1.40
2023-12-31T21:43:53.409Z,1.73
2023-12-31T21:46:35.574Z,1.60
2023-12-31T21:49:07.137Z,1.55
2023-12-31T21:51:35.424Z,1.50
2023-12-31T21:54:02.683Z,1.70
2023-12-31T21:56:50.800Z,1.30
2023-12-31T21:59:18.740Z,1.43
2023-12-31T22:01:45.603Z,1.20
2023-12-31T22:04:14.949Z,1.40
2023-12-31T22:06:45.823Z,1.47
2023-12-31T22:09:14.864Z,1.50
2023-12-31T22:11:43.545Z,1.50
2023-12-31T22:14:13.061Z,1.50
2023-12-31T22:16:39.979Z,1.50
2023-12-31T22:19:06.803Z,1.70
2023-12-31T22:21:34.719Z,1.30
2023-12-31T22:24:01.459Z,1.67
2023-12-31T22:26:28.303Z,1.20
2023-12-31T22:28:57.997Z,1.70
2023-12-31T22:31:25.128Z,1.50
2023-12-31T22:33:52.021Z,1.73
2023-12-31T22:36:19.229Z,1.50
2023-12-31T22:38:46.385Z,1.40
2023-12-31T22:41:13.824Z,1.40
2023-12-31T22:43:41.089Z,1.70
2023-12-31T22:46:08.281Z,1.17
2023-12-31T22:48:34.989Z,1.40
2023-12-31T22:51:01.783Z,1.30
2023-12-31T22:53:31.016Z,1.60
2023-12-31T22:55:58.959Z,1.30
2023-12-31T22:58:26.112Z,1.63
2023-12-31T23:00:55.418Z,1.60
2023-12-31T23:03:22.197Z,1.50
2023-12-31T23:05:51.839Z,1.33
2023-12-31T23:08:21.233Z,1.48
2023-12-31T23:10:48.042Z,1.47
2023-12-31T23:13:14.804Z,1.23
2023-12-31T23:15:42.396Z,1.40
2023-12-31T23:18:14.218Z,1.50
2023-12-31T23:20:43.508Z,1.47
2023-12-31T23:23:11.132Z,1.80
2023-12-31T23:25:37.921Z,1.70
2023-12-31T23:28:05.315Z,1.67
2023-12-31T23:30:32.362Z,2.00
2023-12-31T23:32:59.267Z,1.90
2023-12-31T23:35:26.087Z,2.27
2023-12-31T23:37:55.278Z,1.80
2023-12-31T23:40:22.253Z,2.20
2023-12-31T23:42:49.079Z,1.80
2023-12-31T23:45:16.242Z,2.10
2023-12-31T23:47:43.237Z,2.07
2023-12-31T23:50:12.607Z,1.70
2023-12-31T23:52:41.927Z,1.90
2023-12-31T23:55:11.820Z,2.10
2023-12-31T23:57:43.200Z,1.90
